sensor_id;sensor_type;location;lat;lon;timestamp;pressure;altitude;pressure_sealevel;temperature;humidity
41140;BME280;26881;48.784;9.192;2022-08-06T00:01:19;99130.59;;;21.86;52.33
41140;BME280;26881;48.784;9.192;2022-08-06T00:06:41;99126.81;;;21.89;51.90
41140;BME280;26881;48.784;9.192;2022-08-06T00:12:04;99129.47;;;21.89;52.90
41140;BME280;26881;48.784;9.192;2022-08-06T00:17:31;99127.72;;;21.98;51.97
41140;BME280;26881;48.784;9.192;2022-08-06T00:22:53;99136.66;;;21.79;52.13
41140;BME280;26881;48.784;9.192;2022-08-06T00:28:15;99128.53;;;21.80;52.19
41140;BME280;26881;48.784;9.192;2022-08-06T00:33:39;99134.38;;;21.84;51.65
41140;BME280;26881;48.784;9.192;2022-08-06T00:39:18;99128.28;;;21.74;51.07
41140;BME280;26881;48.784;9.192;2022-08-06T00:44:40;99126.63;;;21.73;50.45
41140;BME280;26881;48.784;9.192;2022-08-06T00:50:03;99133.59;;;21.74;50.93
41140;BME280;26881;48.784;9.192;2022-08-06T00:55:27;99145.44;;;21.61;50.21
41140;BME280;26881;48.784;9.192;2022-08-06T01:00:56;99151.47;;;21.54;50.03
41140;BME280;26881;48.784;9.192;2022-08-06T01:06:20;99157.38;;;21.57;50.07
41140;BME280;26881;48.784;9.192;2022-08-06T01:12:02;99161.19;;;21.45;48.66
41140;BME280;26881;48.784;9.192;2022-08-06T01:17:37;99161.75;;;21.39;48.72
41140;BME280;26881;48.784;9.192;2022-08-06T01:23:28;99170.84;;;21.46;48.75
41140;BME280;26881;48.784;9.192;2022-08-06T01:29:05;99158.97;;;21.31;48.29
41140;BME280;26881;48.784;9.192;2022-08-06T01:34:44;99169.63;;;21.40;48.57
41140;BME280;26881;48.784;9.192;2022-08-06T01:40:20;99163.91;;;21.16;48.43
41140;BME280;26881;48.784;9.192;2022-08-06T01:45:46;99166.00;;;21.22;48.04
41140;BME280;26881;48.784;9.192;2022-08-06T01:51:16;99177.47;;;21.22;48.68
41140;BME280;26881;48.784;9.192;2022-08-06T01:57:00;99178.72;;;21.18;48.01
41140;BME280;26881;48.784;9.192;2022-08-06T02:02:24;99176.66;;;21.12;48.38
41140;BME280;26881;48.784;9.192;2022-08-06T02:07:52;99174.72;;;21.14;48.17
41140;BME280;26881;48.784;9.192;2022-08-06T02:13:35;99175.97;;;21.10;48.14
41140;BME280;26881;48.784;9.192;2022-08-06T02:19:09;99179.06;;;20.96;48.70
41140;BME280;26881;48.784;9.192;2022-08-06T02:24:36;99174.56;;;21.06;48.03
41140;BME280;26881;48.784;9.192;2022-08-06T02:30:01;99196.41;;;20.90;48.27
41140;BME280;26881;48.784;9.192;2022-08-06T02:35:29;99181.03;;;20.74;48.86
41140;BME280;26881;48.784;9.192;2022-08-06T02:41:01;99177.53;;;20.74;49.06
41140;BME280;26881;48.784;9.192;2022-08-06T02:46:33;99192.38;;;20.67;48.94
41140;BME280;26881;48.784;9.192;2022-08-06T02:52:13;99189.44;;;20.60;49.25
41140;BME280;26881;48.784;9.192;2022-08-06T02:57:57;99190.84;;;20.64;49.30
41140;BME280;26881;48.784;9.192;2022-08-06T03:03:25;99202.03;;;20.68;49.42
41140;BME280;26881;48.784;9.192;2022-08-06T03:08:56;99198.66;;;20.56;49.69
41140;BME280;26881;48.784;9.192;2022-08-06T03:14:21;99193.03;;;20.49;49.90
41140;BME280;26881;48.784;9.192;2022-08-06T03:20:04;99201.44;;;20.45;50.14
41140;BME280;26881;48.784;9.192;2022-08-06T03:25:29;99203.09;;;20.46;50.18
41140;BME280;26881;48.784;9.192;2022-08-06T03:30:53;99203.38;;;20.33;50.79
41140;BME280;26881;48.784;9.192;2022-08-06T03:36:16;99211.19;;;20.34;50.80
41140;BME280;26881;48.784;9.192;2022-08-06T03:41:39;99225.03;;;20.28;51.33
41140;BME280;26881;48.784;9.192;2022-08-06T03:47:24;99222.50;;;20.36;50.79
41140;BME280;26881;48.784;9.192;2022-08-06T03:53:12;99221.38;;;20.29;51.43
41140;BME280;26881;48.784;9.192;2022-08-06T03:58:38;99237.19;;;20.31;51.56
41140;BME280;26881;48.784;9.192;2022-08-06T04:04:02;99233.81;;;20.19;51.74
41140;BME280;26881;48.784;9.192;2022-08-06T04:09:44;99241.09;;;20.27;51.71
41140;BME280;26881;48.784;9.192;2022-08-06T04:15:22;99239.00;;;20.30;52.17
41140;BME280;26881;48.784;9.192;2022-08-06T04:20:56;99242.34;;;20.32;51.64
41140;BME280;26881;48.784;9.192;2022-08-06T04:26:40;99250.72;;;20.18;52.24
41140;BME280;26881;48.784;9.192;2022-08-06T04:32:03;99252.66;;;20.16;52.43
41140;BME280;26881;48.784;9.192;2022-08-06T04:37:41;99260.31;;;20.09;52.19
41140;BME280;26881;48.784;9.192;2022-08-06T04:43:08;99262.09;;;19.99;52.67
41140;BME280;26881;48.784;9.192;2022-08-06T04:48:31;99274.13;;;19.93;52.97
41140;BME280;26881;48.784;9.192;2022-08-06T04:54:03;99272.16;;;19.95;53.01
41140;BME280;26881;48.784;9.192;2022-08-06T04:59:27;99275.25;;;20.00;52.97
41140;BME280;26881;48.784;9.192;2022-08-06T05:05:11;99273.88;;;20.06;52.87
41140;BME280;26881;48.784;9.192;2022-08-06T05:10:56;99289.25;;;20.03;53.11
41140;BME280;26881;48.784;9.192;2022-08-06T05:16:19;99291.31;;;19.99;53.50
41140;BME280;26881;48.784;9.192;2022-08-06T05:21:47;99297.78;;;20.06;53.49
41140;BME280;26881;48.784;9.192;2022-08-06T05:27:29;99301.81;;;20.00;53.06
41140;BME280;26881;48.784;9.192;2022-08-06T05:33:11;99309.81;;;19.79;53.81
41140;BME280;26881;48.784;9.192;2022-08-06T05:38:40;99311.63;;;19.79;54.06
41140;BME280;26881;48.784;9.192;2022-08-06T05:44:20;99317.56;;;19.71;54.42
41140;BME280;26881;48.784;9.192;2022-08-06T05:49:47;99322.25;;;19.79;54.71
41140;BME280;26881;48.784;9.192;2022-08-06T05:55:25;99325.03;;;19.77;54.75
41140;BME280;26881;48.784;9.192;2022-08-06T06:01:01;99333.84;;;19.67;54.94
41140;BME280;26881;48.784;9.192;2022-08-06T06:06:33;99322.28;;;19.68;54.96
41140;BME280;26881;48.784;9.192;2022-08-06T06:11:56;99340.81;;;19.79;55.08
41140;BME280;26881;48.784;9.192;2022-08-06T06:34:18;99358.34;;;19.91;55.58
41140;BME280;26881;48.784;9.192;2022-08-06T06:39:54;99363.06;;;19.88;55.00
41140;BME280;26881;48.784;9.192;2022-08-06T06:45:30;99368.00;;;19.92;55.10
41140;BME280;26881;48.784;9.192;2022-08-06T06:51:20;99364.00;;;19.98;54.86
41140;BME280;26881;48.784;9.192;2022-08-06T06:57:08;99376.28;;;19.99;55.28
41140;BME280;26881;48.784;9.192;2022-08-06T07:02:35;99377.59;;;20.05;54.91
41140;BME280;26881;48.784;9.192;2022-08-06T07:07:59;99380.94;;;20.07;54.92
41140;BME280;26881;48.784;9.192;2022-08-06T07:13:24;99379.97;;;20.08;54.82
41140;BME280;26881;48.784;9.192;2022-08-06T07:19:07;99381.00;;;20.16;54.27
41140;BME280;26881;48.784;9.192;2022-08-06T07:24:33;99380.53;;;20.11;54.59
41140;BME280;26881;48.784;9.192;2022-08-06T07:30:03;99381.25;;;20.13;54.63
41140;BME280;26881;48.784;9.192;2022-08-06T07:35:28;99382.19;;;20.03;54.32
41140;BME280;26881;48.784;9.192;2022-08-06T07:40:58;99388.97;;;20.16;54.34
41140;BME280;26881;48.784;9.192;2022-08-06T07:46:39;99387.63;;;20.32;55.25
41140;BME280;26881;48.784;9.192;2022-08-06T07:52:12;99388.22;;;20.35;55.43
41140;BME280;26881;48.784;9.192;2022-08-06T07:57:39;99386.84;;;20.41;54.13
41140;BME280;26881;48.784;9.192;2022-08-06T08:03:17;99386.41;;;20.67;54.41
41140;BME280;26881;48.784;9.192;2022-08-06T08:09:19;99376.88;;;20.64;53.39
41140;BME280;26881;48.784;9.192;2022-08-06T08:15:04;99374.13;;;20.75;54.76
41140;BME280;26881;48.784;9.192;2022-08-06T08:20:44;99378.88;;;20.81;52.57
41140;BME280;26881;48.784;9.192;2022-08-06T08:26:14;99365.88;;;20.78;52.51
41140;BME280;26881;48.784;9.192;2022-08-06T08:31:42;99356.53;;;20.94;51.61
41140;BME280;26881;48.784;9.192;2022-08-06T08:37:20;99360.72;;;20.87;51.71
41140;BME280;26881;48.784;9.192;2022-08-06T08:42:44;99369.41;;;20.98;51.36
41140;BME280;26881;48.784;9.192;2022-08-06T08:48:10;99366.75;;;20.89;51.37
41140;BME280;26881;48.784;9.192;2022-08-06T08:53:39;99363.41;;;21.06;51.27
41140;BME280;26881;48.784;9.192;2022-08-06T08:59:08;99364.53;;;21.23;50.10
41140;BME280;26881;48.784;9.192;2022-08-06T09:04:52;99370.00;;;21.31;50.43
41140;BME280;26881;48.784;9.192;2022-08-06T09:10:14;99371.97;;;21.39;49.73
41140;BME280;26881;48.784;9.192;2022-08-06T09:15:39;99374.66;;;21.49;49.53
41140;BME280;26881;48.784;9.192;2022-08-06T09:21:09;99370.84;;;21.51;48.85
41140;BME280;26881;48.784;9.192;2022-08-06T09:26:31;99379.69;;;21.61;48.75
41140;BME280;26881;48.784;9.192;2022-08-06T09:32:42;99383.19;;;21.52;47.46
41140;BME280;26881;48.784;9.192;2022-08-06T09:38:18;99387.38;;;21.35;48.17
41140;BME280;26881;48.784;9.192;2022-08-06T09:43:41;99381.91;;;21.37;48.56
41140;BME280;26881;48.784;9.192;2022-08-06T09:49:23;99381.47;;;21.32;48.62
41140;BME280;26881;48.784;9.192;2022-08-06T09:55:06;99386.56;;;21.54;48.49
41140;BME280;26881;48.784;9.192;2022-08-06T10:00:38;99372.81;;;21.78;47.35
41140;BME280;26881;48.784;9.192;2022-08-06T10:06:09;99371.09;;;21.97;46.73
41140;BME280;26881;48.784;9.192;2022-08-06T10:11:39;99373.16;;;22.13;46.21
41140;BME280;26881;48.784;9.192;2022-08-06T10:17:19;99378.63;;;22.21;45.78
41140;BME280;26881;48.784;9.192;2022-08-06T10:22:50;99381.97;;;22.23;45.97
41140;BME280;26881;48.784;9.192;2022-08-06T10:28:13;99374.38;;;22.18;44.18
41140;BME280;26881;48.784;9.192;2022-08-06T10:33:40;99369.88;;;22.19;45.30
41140;BME280;26881;48.784;9.192;2022-08-06T10:39:07;99372.97;;;22.34;44.95
41140;BME280;26881;48.784;9.192;2022-08-06T10:44:49;99372.72;;;22.27;43.28
41140;BME280;26881;48.784;9.192;2022-08-06T10:50:14;99375.69;;;22.24;43.60
41140;BME280;26881;48.784;9.192;2022-08-06T10:55:53;99364.28;;;22.32;43.95
41140;BME280;26881;48.784;9.192;2022-08-06T11:01:43;99362.06;;;22.27;43.41
41140;BME280;26881;48.784;9.192;2022-08-06T11:07:46;99360.88;;;22.39;43.37
41140;BME280;26881;48.784;9.192;2022-08-06T11:19:44;99349.81;;;22.34;42.80
41140;BME280;26881;48.784;9.192;2022-08-06T11:25:16;99341.19;;;22.50;43.73
41140;BME280;26881;48.784;9.192;2022-08-06T11:30:51;99333.97;;;22.60;43.14
41140;BME280;26881;48.784;9.192;2022-08-06T11:36:24;99331.88;;;22.82;42.64
41140;BME280;26881;48.784;9.192;2022-08-06T11:41:49;99330.78;;;22.75;43.18
41140;BME280;26881;48.784;9.192;2022-08-06T11:47:18;99330.09;;;22.72;43.31
41140;BME280;26881;48.784;9.192;2022-08-06T11:52:51;99326.09;;;22.68;42.79
41140;BME280;26881;48.784;9.192;2022-08-06T12:03:42;99308.66;;;23.10;42.10
41140;BME280;26881;48.784;9.192;2022-08-06T12:09:11;99304.78;;;23.22;41.36
41140;BME280;26881;48.784;9.192;2022-08-06T12:14:55;99298.81;;;23.28;41.13
41140;BME280;26881;48.784;9.192;2022-08-06T12:20:38;99295.63;;;23.43;41.69
41140;BME280;26881;48.784;9.192;2022-08-06T12:26:10;99290.75;;;23.38;40.90
41140;BME280;26881;48.784;9.192;2022-08-06T12:31:34;99287.97;;;23.48;40.76
41140;BME280;26881;48.784;9.192;2022-08-06T12:37:09;99287.19;;;23.11;41.56
41140;BME280;26881;48.784;9.192;2022-08-06T12:42:37;99278.84;;;23.32;42.54
41140;BME280;26881;48.784;9.192;2022-08-06T12:48:15;99272.06;;;23.38;41.22
41140;BME280;26881;48.784;9.192;2022-08-06T12:53:51;99259.09;;;23.43;42.12
41140;BME280;26881;48.784;9.192;2022-08-06T12:59:13;99249.28;;;23.52;40.34
41140;BME280;26881;48.784;9.192;2022-08-06T13:04:48;99246.81;;;23.59;39.46
41140;BME280;26881;48.784;9.192;2022-08-06T13:10:12;99246.00;;;23.58;40.55
41140;BME280;26881;48.784;9.192;2022-08-06T13:16:14;99243.91;;;23.44;39.60
41140;BME280;26881;48.784;9.192;2022-08-06T13:21:57;99232.06;;;23.46;39.05
41140;BME280;26881;48.784;9.192;2022-08-06T13:27:31;99229.06;;;23.49;39.23
41140;BME280;26881;48.784;9.192;2022-08-06T13:33:11;99215.81;;;23.66;38.50
41140;BME280;26881;48.784;9.192;2022-08-06T13:38:35;99219.41;;;23.74;38.97
41140;BME280;26881;48.784;9.192;2022-08-06T13:44:03;99210.66;;;23.98;38.15
41140;BME280;26881;48.784;9.192;2022-08-06T13:49:29;99203.38;;;24.17;38.64
41140;BME280;26881;48.784;9.192;2022-08-06T13:54:56;99205.56;;;24.22;38.05
41140;BME280;26881;48.784;9.192;2022-08-06T14:00:19;99200.53;;;24.10;37.70
41140;BME280;26881;48.784;9.192;2022-08-06T14:05:41;99201.81;;;23.98;37.68
41140;BME280;26881;48.784;9.192;2022-08-06T14:11:11;99204.47;;;23.98;38.85
41140;BME280;26881;48.784;9.192;2022-08-06T14:16:34;99196.72;;;24.21;37.99
41140;BME280;26881;48.784;9.192;2022-08-06T14:21:59;99192.09;;;24.39;37.71
41140;BME280;26881;48.784;9.192;2022-08-06T14:27:24;99182.63;;;24.53;37.29
41140;BME280;26881;48.784;9.192;2022-08-06T14:32:51;99165.91;;;24.59;35.98
41140;BME280;26881;48.784;9.192;2022-08-06T14:38:13;99178.09;;;24.70;36.12
41140;BME280;26881;48.784;9.192;2022-08-06T14:43:36;99172.94;;;24.69;35.76
41140;BME280;26881;48.784;9.192;2022-08-06T14:49:19;99169.41;;;24.68;36.83
41140;BME280;26881;48.784;9.192;2022-08-06T14:54:43;99162.72;;;24.56;36.09
41140;BME280;26881;48.784;9.192;2022-08-06T15:00:16;99162.22;;;24.52;36.22
41140;BME280;26881;48.784;9.192;2022-08-06T15:05:43;99144.84;;;24.48;35.69
41140;BME280;26881;48.784;9.192;2022-08-06T15:11:25;99150.69;;;24.52;34.89
41140;BME280;26881;48.784;9.192;2022-08-06T15:17:07;99147.50;;;24.56;34.21
41140;BME280;26881;48.784;9.192;2022-08-06T15:22:49;99137.66;;;24.57;34.28
41140;BME280;26881;48.784;9.192;2022-08-06T15:28:12;99134.31;;;24.63;35.29
41140;BME280;26881;48.784;9.192;2022-08-06T15:33:35;99120.59;;;24.66;35.08
41140;BME280;26881;48.784;9.192;2022-08-06T15:38:57;99126.59;;;24.68;35.11
41140;BME280;26881;48.784;9.192;2022-08-06T15:44:20;99131.81;;;24.62;34.66
41140;BME280;26881;48.784;9.192;2022-08-06T15:50:01;99132.13;;;24.58;34.80
41140;BME280;26881;48.784;9.192;2022-08-06T15:55:26;99126.47;;;24.62;35.14
41140;BME280;26881;48.784;9.192;2022-08-06T16:00:52;99124.59;;;24.70;33.82
41140;BME280;26881;48.784;9.192;2022-08-06T16:06:25;99127.13;;;24.72;33.90
41140;BME280;26881;48.784;9.192;2022-08-06T16:11:49;99111.41;;;24.69;34.27
41140;BME280;26881;48.784;9.192;2022-08-06T16:17:13;99110.75;;;24.58;34.06
41140;BME280;26881;48.784;9.192;2022-08-06T16:22:54;99116.91;;;24.59;33.81
41140;BME280;26881;48.784;9.192;2022-08-06T16:28:16;99115.59;;;24.63;33.75
41140;BME280;26881;48.784;9.192;2022-08-06T16:33:47;99109.41;;;24.63;33.41
41140;BME280;26881;48.784;9.192;2022-08-06T16:39:16;99099.72;;;24.62;32.91
41140;BME280;26881;48.784;9.192;2022-08-06T16:44:58;99101.72;;;24.59;33.35
41140;BME280;26881;48.784;9.192;2022-08-06T16:50:30;99101.22;;;24.64;33.68
41140;BME280;26881;48.784;9.192;2022-08-06T16:55:57;99099.53;;;24.63;34.24
41140;BME280;26881;48.784;9.192;2022-08-06T17:01:20;99095.38;;;24.60;31.56
41140;BME280;26881;48.784;9.192;2022-08-06T17:07:02;99080.50;;;24.58;31.57
41140;BME280;26881;48.784;9.192;2022-08-06T17:12:24;99091.34;;;24.56;32.03
41140;BME280;26881;48.784;9.192;2022-08-06T17:17:47;99093.03;;;24.57;32.62
41140;BME280;26881;48.784;9.192;2022-08-06T17:23:10;99090.69;;;24.63;31.25
41140;BME280;26881;48.784;9.192;2022-08-06T17:28:33;99094.69;;;24.58;31.21
41140;BME280;26881;48.784;9.192;2022-08-06T17:33:55;99090.16;;;24.59;31.02
41140;BME280;26881;48.784;9.192;2022-08-06T17:39:20;99096.53;;;24.58;31.46
41140;BME280;26881;48.784;9.192;2022-08-06T17:44:59;99090.34;;;24.57;30.72
41140;BME280;26881;48.784;9.192;2022-08-06T17:50:22;99089.69;;;24.55;31.63
41140;BME280;26881;48.784;9.192;2022-08-06T17:56:03;99096.22;;;24.53;30.08
41140;BME280;26881;48.784;9.192;2022-08-06T18:01:31;99090.84;;;24.53;29.88
41140;BME280;26881;48.784;9.192;2022-08-06T18:07:05;99100.22;;;24.49;30.23
41140;BME280;26881;48.784;9.192;2022-08-06T18:12:36;99101.03;;;24.41;29.64
41140;BME280;26881;48.784;9.192;2022-08-06T18:18:09;99108.53;;;24.37;29.66
41140;BME280;26881;48.784;9.192;2022-08-06T18:23:40;99118.22;;;24.30;28.69
41140;BME280;26881;48.784;9.192;2022-08-06T18:29:03;99119.03;;;24.23;27.82
41140;BME280;26881;48.784;9.192;2022-08-06T18:34:27;99125.22;;;24.15;28.90
41140;BME280;26881;48.784;9.192;2022-08-06T18:39:50;99132.38;;;24.06;28.46
41140;BME280;26881;48.784;9.192;2022-08-06T18:45:32;99136.84;;;23.97;28.28
41140;BME280;26881;48.784;9.192;2022-08-06T18:50:57;99150.03;;;23.91;28.20
41140;BME280;26881;48.784;9.192;2022-08-06T18:56:19;99150.50;;;23.78;29.34
41140;BME280;26881;48.784;9.192;2022-08-06T19:01:43;99151.25;;;23.70;29.60
41140;BME280;26881;48.784;9.192;2022-08-06T19:07:10;99152.31;;;23.51;30.96
41140;BME280;26881;48.784;9.192;2022-08-06T19:12:34;99152.41;;;23.33;30.47
41140;BME280;26881;48.784;9.192;2022-08-06T19:17:57;99158.59;;;23.34;29.57
41140;BME280;26881;48.784;9.192;2022-08-06T19:23:37;99164.03;;;23.24;29.27
41140;BME280;26881;48.784;9.192;2022-08-06T19:29:20;99167.19;;;23.20;29.11
41140;BME280;26881;48.784;9.192;2022-08-06T19:35:02;99165.91;;;23.06;29.82
41140;BME280;26881;48.784;9.192;2022-08-06T19:40:24;99163.72;;;23.01;30.18
41140;BME280;26881;48.784;9.192;2022-08-06T19:46:05;99164.16;;;22.79;30.82
41140;BME280;26881;48.784;9.192;2022-08-06T19:51:47;99172.47;;;22.58;32.00
41140;BME280;26881;48.784;9.192;2022-08-06T19:57:25;99162.88;;;22.47;32.27
41140;BME280;26881;48.784;9.192;2022-08-06T20:02:53;99170.94;;;22.37;32.35
41140;BME280;26881;48.784;9.192;2022-08-06T20:08:15;99166.75;;;22.35;32.66
41140;BME280;26881;48.784;9.192;2022-08-06T20:13:53;99181.31;;;22.22;31.92
41140;BME280;26881;48.784;9.192;2022-08-06T20:19:15;99175.16;;;22.12;32.66
41140;BME280;26881;48.784;9.192;2022-08-06T20:24:37;99176.22;;;22.01;32.65
41140;BME280;26881;48.784;9.192;2022-08-06T20:30:02;99181.88;;;21.88;32.88
41140;BME280;26881;48.784;9.192;2022-08-06T20:35:30;99179.94;;;21.81;32.63
41140;BME280;26881;48.784;9.192;2022-08-06T20:40:58;99181.44;;;21.65;33.09
41140;BME280;26881;48.784;9.192;2022-08-06T20:46:43;99179.66;;;21.56;33.23
41140;BME280;26881;48.784;9.192;2022-08-06T20:52:25;99184.81;;;21.58;33.30
41140;BME280;26881;48.784;9.192;2022-08-06T20:57:50;99181.31;;;21.57;33.25
41140;BME280;26881;48.784;9.192;2022-08-06T21:03:13;99178.97;;;21.54;33.21
41140;BME280;26881;48.784;9.192;2022-08-06T21:08:55;99166.22;;;21.38;33.67
41140;BME280;26881;48.784;9.192;2022-08-06T21:14:17;99175.59;;;21.33;33.53
41140;BME280;26881;48.784;9.192;2022-08-06T21:19:51;99182.38;;;21.17;33.57
41140;BME280;26881;48.784;9.192;2022-08-06T21:25:33;99175.13;;;21.10;34.17
41140;BME280;26881;48.784;9.192;2022-08-06T21:31:03;99179.59;;;21.09;33.53
41140;BME280;26881;48.784;9.192;2022-08-06T21:36:27;99189.13;;;21.02;33.64
41140;BME280;26881;48.784;9.192;2022-08-06T21:41:49;99183.25;;;20.98;34.11
41140;BME280;26881;48.784;9.192;2022-08-06T21:47:19;99188.00;;;20.95;34.42
41140;BME280;26881;48.784;9.192;2022-08-06T21:52:42;99179.06;;;20.86;34.00
41140;BME280;26881;48.784;9.192;2022-08-06T21:58:04;99182.44;;;20.78;34.16
41140;BME280;26881;48.784;9.192;2022-08-06T22:03:26;99187.75;;;20.69;34.89
41140;BME280;26881;48.784;9.192;2022-08-06T22:09:08;99189.09;;;20.53;34.56
41140;BME280;26881;48.784;9.192;2022-08-06T22:14:36;99190.66;;;20.56;34.94
41140;BME280;26881;48.784;9.192;2022-08-06T22:20:07;99187.84;;;20.48;34.96
41140;BME280;26881;48.784;9.192;2022-08-06T22:25:42;99193.00;;;20.39;35.22
41140;BME280;26881;48.784;9.192;2022-08-06T22:31:05;99180.44;;;20.41;35.54
41140;BME280;26881;48.784;9.192;2022-08-06T22:36:29;99187.25;;;20.25;35.92
41140;BME280;26881;48.784;9.192;2022-08-06T22:41:55;99178.19;;;20.27;36.63
41140;BME280;26881;48.784;9.192;2022-08-06T22:47:28;99177.16;;;20.18;36.86
41140;BME280;26881;48.784;9.192;2022-08-06T22:53:02;99170.88;;;20.10;37.34
41140;BME280;26881;48.784;9.192;2022-08-06T22:58:44;99160.09;;;20.02;38.04
41140;BME280;26881;48.784;9.192;2022-08-06T23:04:25;99173.06;;;19.95;38.39
41140;BME280;26881;48.784;9.192;2022-08-06T23:09:49;99161.78;;;20.03;38.33
41140;BME280;26881;48.784;9.192;2022-08-06T23:15:14;99155.78;;;20.00;37.70
41140;BME280;26881;48.784;9.192;2022-08-06T23:20:57;99154.78;;;20.02;37.48
41140;BME280;26881;48.784;9.192;2022-08-06T23:26:42;99156.84;;;19.88;37.16
41140;BME280;26881;48.784;9.192;2022-08-06T23:32:05;99147.63;;;19.83;37.59
41140;BME280;26881;48.784;9.192;2022-08-06T23:37:28;99152.38;;;19.79;37.37
41140;BME280;26881;48.784;9.192;2022-08-06T23:42:52;99153.91;;;19.82;37.47
41140;BME280;26881;48.784;9.192;2022-08-06T23:48:17;99148.38;;;19.64;37.80
41140;BME280;26881;48.784;9.192;2022-08-06T23:53:41;99148.66;;;19.61;38.03
41140;BME280;26881;48.784;9.192;2022-08-06T23:59:23;99162.94;;;19.48;37.83
